Main page
METAR-TAF:

METAR-TAF

Airports :

Logroño–Agoncillo Airport

Logroño, Spain

latitude: 42-27N, longitude: 002-20W, elevation: 353 m

Current weather observation

The report was made 39 minutes ago, at 03:00 UTC
Wind 1 kt from variable directions
Temperature 16°C
Humidity 82%
Pressure 1012 hPa
Visibility 10 km or more
no clouds below 1500 m and no cumulonimbus

METAR: LELO 150300Z AUTO VRB01KT CAVOK 16/13 Q1012

Time: 05:39 (03:39 UTC)

Forecast

The report was made 1 hour and 39 minutes ago, at 02:00 UTC
Forecast valid from 15 at 03 UTC to 16 at 03 UTC
Wind 10 kt from the North
Visibility 10 km or more
no clouds below 1500 m and no cumulonimbus
Temporary
from 15 at 03 UTC to 15 at 09 UTC
Wind 5 kt from variable directions
Becoming
from 15 at 09 UTC to 15 at 11 UTC
Wind 10 kt from the West

TAF: LELO 150200Z 1503/1603 36010KT CAVOK TX32/1516Z TN14/1505Z TEMPO 1503/1509 VRB05KT BECMG 1509/1511 28010KT

Weather observations and forecasts of more than 4000 airports (METAR and TAF reports).

The available stations are represented by yellow and red dots on the map.

Hover mouse over dot to see the name of the station.

Then click to see weather observations and forecasts.

To change the map : click on the green buttons with a black cross to zoom in, on the green button with a dash to zoom out, or on the green arrows for adjacent maps.


METAR-TAF: